KRZN

Burnett County Airport

Siren, Wisconsin, USA
METAR KRZN 140655Z AUTO 21006KT 2 1/2SM BR OVC003 M02/M02 A3013 RMK AO2 T10211023
Observed Flight Rules
Dec-14 @ 06:55 UTC (47 minutes ago) Instrument Flight Rules
Wind Visibility Clouds Conditions
210° at 6 knots 2 1/2 miles
  • Overcast at 300' AGL
  • Mist
Temperatures Readings
Current -2°C / 28°F
Dewpoint -2°C / 28°F
Humidity 100%
Altimeter 30.13" Hg
Pressure 1020 hPa
Elevation 301
METAR KRZN 140655Z AUTO 21006KT 2 1/2SM BR OVC003 M02/M02 A3013 RMK AO2 T10211023
Observed Flight Rules
Dec-14 @ 06:55 UTC
(47 minutes ago)
LIFR
Wind Visibility
210° at 6 knots 2 1/2 miles
Clouds
  • Overcast at 300' AGL
Conditions
  • Mist
Temperature Dewpoint
-2°C / 28°F -2°C / 28°F
Humidity Altimeter Pressure
100% 30.13" Hg 1020 hPa